This is the latest recevied weather packets stored in our database for station/object KD9NSC. If no packets are shown the sender has not sent any weather packets the latest 10 day(s).
| Time | Temp. | Humidity | Pressure | Rain* | Wind** | Luminosity | Snow |
|---|---|---|---|---|---|---|---|
| 1777941901 | 14.44° C | 96% | 1002 hPa | 0 mm | - | 0 W/m² | - |
| 1777941597 | 15° C | 96% | 1002.1 hPa | 0 mm | - | 0 W/m² | - |
| 1777941294 | 15° C | 96% | 1001.3 hPa | 0 mm | - | 0 W/m² | - |
| 1777940990 | 15° C | 96% | 1000.4 hPa | 0 mm | - | 0 W/m² | - |
| 1777940687 | 15° C | 96% | 1000.5 hPa | 0 mm | - | 0 W/m² | - |
| 1777940385 | 15° C | 95% | 1000.3 hPa | 0 mm | - | 1 W/m² | - |
| 1777940083 | 15.56° C | 95% | 999.7 hPa | 0 mm | - | 3 W/m² | - |
| 1777939779 | 15.56° C | 95% | 999.7 hPa | 0 mm | - | 5 W/m² | - |
| 1777939478 | 15.56° C | 95% | 999.4 hPa | 1.78 mm | - | 6 W/m² | - |
| 1777939174 | 15° C | 95% | 999.6 hPa | 1.78 mm | - | 8 W/m² | - |
| 1777938871 | 15.56° C | 94% | 1000.3 hPa | 0 mm | - | 6 W/m² | - |
| 1777938567 | 15° C | 93% | 1000.4 hPa | 4.32 mm | - | 2 W/m² | - |
| 1777938265 | 15.56° C | 93% | 1000.4 hPa | 14.99 mm | - | 6 W/m² | - |
| 1777937961 | 15.56° C | 92% | 1001.1 hPa | 23.88 mm | - | 10 W/m² | - |
| 1777937657 | 16.67° C | 90% | 1001.7 hPa | 21.08 mm | - | 7 W/m² | - |
| 1777937354 | 17.22° C | 86% | 1001.7 hPa | 9.65 mm | - | 3 W/m² | - |
| 1777937051 | 18.89° C | 82% | 1001.5 hPa | 4.83 mm | - | 2 W/m² | - |
| 1777936748 | 20° C | 73% | 1001 hPa | 0 mm | - | 1 W/m² | - |
| 1777936444 | 20.56° C | 70% | 1001.2 hPa | 0 mm | - | 1 W/m² | - |
| 1777936141 | 21.11° C | 65% | 1000.6 hPa | 0 mm | - | 1 W/m² | - |
| 1777935838 | 21.11° C | 63% | 1000.5 hPa | 0 mm | - | 1 W/m² | - |
| 1777935537 | 21.67° C | 60% | 1000.6 hPa | 0 mm | - | 1 W/m² | - |
| 1777935233 | 21.67° C | 63% | 1000.4 hPa | 0 mm | - | 1 W/m² | - |
| 1777934931 | 22.22° C | 61% | 1000.4 hPa | 0 mm | - | 1 W/m² | - |
| 1777934627 | 22.78° C | 53% | 1000.4 hPa | 0 mm | - | 2 W/m² | - |
* Rain latest hour (hover to see other rain measurements)
** Current wind speed in m/s (hover to see current wind gust speed)